Little Current, Canada
Current Conditions -  °F | °C
As of 8:00 AM on Wednesday 22 Oct 2014 (Local Time) from CYZE Reporting Station
Clear Clear  
Wind Chill: 30°   Ceiling: Unl
Heat Index: 34°   Visibility: 9mi
Dew Point: 30°   Wind: 5mph
Humidity: 87%   Direction: 100°E
Pressure: 30.37"   Gusts: NA
Location:  45.97°N, 81.93°W
Report Text: CYZE 221200Z AUTO 10004KT 070V130 9SM CLR 01/M01 A3037 RMK SLP294
Loading
Personal Weather Stations






























Interactive Weather Map
Tropical Storm Tracking
New forecast layout! Learn more

10-Day Weather Forecast

Advertisements
Track Severe Weather on mobile